TimeEST,TemperatureF,Dew PointF,Humidity,Sea Level PressureIn,VisibilityMPH,Wind Direction,Wind SpeedMPH,Gust SpeedMPH,PrecipitationIn,Events,Conditions,WindDirDegrees,DateUTC
12:15 AM,49.1,41.0,74,30.00,10.0,Calm,Calm,-,N/A,,Clear,0,2013-02-06 05:15:00
12:35 AM,47.8,40.5,76,30.00,10.0,Calm,Calm,-,N/A,,Clear,0,2013-02-06 05:35:00
12:55 AM,45.9,40.6,82,30.00,10.0,Calm,Calm,-,N/A,,Clear,0,2013-02-06 05:55:00
1:15 AM,45.9,40.6,82,30.00,10.0,Calm,Calm,-,N/A,,Clear,0,2013-02-06 06:15:00
1:35 AM,46.2,41.4,83,30.00,10.0,Calm,Calm,-,N/A,,Clear,0,2013-02-06 06:35:00
2:15 AM,45.7,41.4,85,30.00,10.0,Calm,Calm,-,N/A,,Clear,0,2013-02-06 07:15:00
2:35 AM,45.7,41.9,87,30.00,10.0,Calm,Calm,-,N/A,,Clear,0,2013-02-06 07:35:00
2:55 AM,46.9,43.2,87,30.01,10.0,Calm,Calm,-,N/A,,Clear,0,2013-02-06 07:55:00
3:15 AM,46.2,42.4,87,30.01,10.0,Calm,Calm,-,N/A,,Clear,0,2013-02-06 08:15:00
3:35 AM,45.0,41.2,87,30.01,10.0,Calm,Calm,-,N/A,,Clear,0,2013-02-06 08:35:00
3:55 AM,46.2,42.6,87,30.02,10.0,Calm,Calm,-,N/A,,Clear,0,2013-02-06 08:55:00
4:15 AM,45.1,42.3,90,30.02,10.0,Calm,Calm,-,N/A,,Clear,0,2013-02-06 09:15:00
4:35 AM,44.2,42.1,92,30.03,10.0,Calm,Calm,-,N/A,,Clear,0,2013-02-06 09:35:00
4:55 AM,43.5,41.4,92,30.03,10.0,Calm,Calm,-,N/A,,Clear,0,2013-02-06 09:55:00
5:15 AM,43.9,42.8,96,30.04,10.0,Calm,Calm,-,N/A,,Clear,0,2013-02-06 10:15:00
5:35 AM,41.0,39.4,94,30.06,10.0,Calm,Calm,-,N/A,,Clear,0,2013-02-06 10:35:00
5:55 AM,40.5,39.0,95,30.06,10.0,Calm,Calm,-,N/A,,Clear,0,2013-02-06 10:55:00
6:15 AM,40.3,39.0,95,30.07,10.0,Calm,Calm,-,N/A,,Clear,0,2013-02-06 11:15:00
6:35 AM,40.1,39.0,96,30.08,7.0,Calm,Calm,-,N/A,,Clear,0,2013-02-06 11:35:00
6:55 AM,39.6,38.3,95,30.08,10.0,Calm,Calm,-,N/A,,Clear,0,2013-02-06 11:55:00
7:15 AM,39.7,38.3,95,30.09,10.0,Calm,Calm,-,N/A,,Clear,0,2013-02-06 12:15:00
7:35 AM,40.1,39.0,96,30.09,7.0,Calm,Calm,-,N/A,,Clear,0,2013-02-06 12:35:00
7:55 AM,41.5,40.3,95,30.10,10.0,Calm,Calm,-,N/A,,Clear,0,2013-02-06 12:55:00
8:15 AM,45.3,43.3,93,30.11,10.0,Calm,Calm,-,N/A,,Clear,0,2013-02-06 13:15:00
8:35 AM,49.3,45.7,87,30.12,10.0,WNW,3.5,-,N/A,,Clear,290,2013-02-06 13:35:00
8:55 AM,52.0,46.4,81,30.13,10.0,WNW,3.5,-,N/A,,Clear,290,2013-02-06 13:55:00
9:15 AM,53.2,46.6,78,30.14,10.0,Calm,Calm,-,N/A,,Clear,0,2013-02-06 14:15:00
9:35 AM,54.7,46.8,75,30.15,10.0,West,3.5,-,N/A,,Clear,270,2013-02-06 14:35:00
9:55 AM,56.5,46.8,70,30.15,10.0,West,3.5,-,N/A,,Clear,280,2013-02-06 14:55:00
10:15 AM,58.5,46.6,65,30.15,10.0,Calm,Calm,-,N/A,,Clear,0,2013-02-06 15:15:00
10:35 AM,60.1,44.6,57,30.15,10.0,NW,3.5,-,N/A,,Clear,310,2013-02-06 15:35:00
10:55 AM,61.7,42.3,49,30.16,10.0,North,6.9,-,N/A,,Clear,10,2013-02-06 15:55:00
11:15 AM,62.4,40.5,44,30.16,10.0,North,4.6,-,N/A,,Clear,360,2013-02-06 16:15:00
11:35 AM,63.0,38.3,40,30.15,10.0,NNE,3.5,-,N/A,,Clear,30,2013-02-06 16:35:00
11:55 AM,64.0,37.4,37,30.14,10.0,NNW,3.5,-,N/A,,Clear,340,2013-02-06 16:55:00
12:15 PM,64.6,35.8,34,30.13,10.0,North,3.5,-,N/A,,Clear,350,2013-02-06 17:15:00
12:35 PM,64.6,34.5,33,30.13,10.0,NNW,4.6,-,N/A,,Clear,330,2013-02-06 17:35:00
12:55 PM,65.5,35.6,33,30.13,10.0,Calm,Calm,-,N/A,,Clear,0,2013-02-06 17:55:00
1:15 PM,65.5,35.4,33,30.12,7.0,ENE,3.5,-,N/A,,Clear,70,2013-02-06 18:15:00
1:35 PM,65.7,32.7,29,30.11,7.0,West,3.5,-,N/A,,Clear,280,2013-02-06 18:35:00
1:55 PM,66.7,32.9,28,30.11,10.0,South,3.5,-,N/A,,Clear,180,2013-02-06 18:55:00
2:15 PM,66.0,33.1,29,30.11,10.0,Calm,Calm,-,N/A,,Clear,0,2013-02-06 19:15:00
2:35 PM,67.1,33.4,29,30.11,10.0,North,4.6,-,N/A,,Clear,360,2013-02-06 19:35:00
2:55 PM,67.1,32.5,28,30.11,10.0,WNW,3.5,-,N/A,,Clear,290,2013-02-06 19:55:00
3:15 PM,67.1,32.7,28,30.11,10.0,Calm,Calm,-,N/A,,Clear,0,2013-02-06 20:15:00
3:35 PM,67.1,33.1,28,30.11,10.0,NNW,3.5,-,N/A,,Clear,330,2013-02-06 20:35:00
3:55 PM,67.1,32.5,28,30.11,10.0,Calm,Calm,-,N/A,,Clear,0,2013-02-06 20:55:00
4:15 PM,67.3,32.5,28,30.11,10.0,Calm,Calm,-,N/A,,Clear,0,2013-02-06 21:15:00
4:35 PM,66.9,32.4,28,30.11,10.0,Calm,Calm,-,N/A,,Clear,0,2013-02-06 21:35:00
4:55 PM,65.7,33.8,31,30.12,10.0,Calm,Calm,-,N/A,,Clear,0,2013-02-06 21:55:00
5:15 PM,64.4,33.8,32,30.12,10.0,Calm,Calm,-,N/A,,Clear,0,2013-02-06 22:15:00
5:35 PM,62.8,36.3,37,30.13,10.0,Calm,Calm,-,N/A,,Clear,0,2013-02-06 22:35:00
5:55 PM,60.4,37.8,43,30.14,10.0,Calm,Calm,-,N/A,,Clear,0,2013-02-06 22:55:00
6:15 PM,59.0,38.5,47,30.15,10.0,Calm,Calm,-,N/A,,Clear,0,2013-02-06 23:15:00
6:35 PM,53.6,40.3,61,30.16,10.0,SE,4.6,-,N/A,,Clear,140,2013-02-06 23:35:00
6:55 PM,57.2,39.6,52,30.16,10.0,Calm,Calm,-,N/A,,Clear,0,2013-02-06 23:55:00
7:15 PM,55.6,40.1,56,30.18,10.0,Calm,Calm,-,N/A,,Clear,0,2013-02-07 00:15:00
7:35 PM,52.0,40.3,64,30.19,10.0,South,3.5,-,N/A,,Clear,170,2013-02-07 00:35:00
7:55 PM,52.2,41.0,66,30.19,10.0,Calm,Calm,-,N/A,,Clear,0,2013-02-07 00:55:00
8:15 PM,48.2,40.5,75,30.19,10.0,Calm,Calm,-,N/A,,Clear,0,2013-02-07 01:15:00
8:35 PM,48.2,40.1,74,30.19,10.0,Calm,Calm,-,N/A,,Clear,0,2013-02-07 01:35:00
8:55 PM,46.9,40.3,78,30.21,10.0,Calm,Calm,-,N/A,,Clear,0,2013-02-07 01:55:00
9:15 PM,46.4,40.3,79,30.21,10.0,Calm,Calm,-,N/A,,Clear,0,2013-02-07 02:15:00
9:35 PM,45.1,40.1,82,30.21,10.0,Calm,Calm,-,N/A,,Clear,0,2013-02-07 02:35:00
9:55 PM,45.5,40.8,84,30.21,10.0,Calm,Calm,-,N/A,,Clear,0,2013-02-07 02:55:00
10:15 PM,43.9,40.3,87,30.20,10.0,Calm,Calm,-,N/A,,Clear,0,2013-02-07 03:15:00
10:35 PM,42.3,39.6,90,30.20,10.0,Calm,Calm,-,N/A,,Clear,0,2013-02-07 03:35:00
10:55 PM,43.9,40.1,87,30.21,10.0,Calm,Calm,-,N/A,,Clear,0,2013-02-07 03:55:00
11:15 PM,43.2,39.7,88,30.21,10.0,Calm,Calm,-,N/A,,Clear,0,2013-02-07 04:15:00
11:35 PM,44.2,40.6,87,30.24,10.0,Calm,Calm,-,N/A,,Clear,0,2013-02-07 04:35:00
11:55 PM,40.8,38.3,91,30.24,10.0,North,4.6,-,N/A,,Clear,10,2013-02-07 04:55:00